createdAt,value
2019-06-08T00:00:51.163Z,60.00
2019-06-08T00:03:20.761Z,60.10
2019-06-08T00:05:50.029Z,60.10
2019-06-08T00:08:19.301Z,59.90
2019-06-08T00:10:48.525Z,59.40
2019-06-08T00:13:19.693Z,59.50
2019-06-08T00:15:48.723Z,59.70
2019-06-08T00:18:17.999Z,59.80
2019-06-08T00:20:47.178Z,59.60
2019-06-08T00:23:17.686Z,59.80
2019-06-08T00:25:46.925Z,60.00
2019-06-08T00:28:16.188Z,60.20
2019-06-08T00:30:45.570Z,60.00
2019-06-08T00:33:14.860Z,60.20
2019-06-08T00:35:44.073Z,60.00
2019-06-08T00:38:14.778Z,60.10
2019-06-08T00:40:44.670Z,60.10
2019-06-08T00:43:15.076Z,59.90
2019-06-08T00:45:44.327Z,59.80
2019-06-08T00:48:13.536Z,59.80
2019-06-08T00:50:42.819Z,59.90
2019-06-08T00:53:12.035Z,59.80
2019-06-08T00:55:41.293Z,59.40
2019-06-08T00:58:10.504Z,59.50
2019-06-08T01:00:39.688Z,59.40
2019-06-08T01:03:08.899Z,59.50
2019-06-08T01:05:38.142Z,59.40
2019-06-08T01:08:07.681Z,59.30
2019-06-08T01:10:37.003Z,59.20
2019-06-08T01:13:06.329Z,59.30
2019-06-08T01:15:35.667Z,59.40
2019-06-08T01:18:04.864Z,59.10
2019-06-08T01:20:34.147Z,59.10
2019-06-08T01:23:03.439Z,58.70
2019-06-08T01:25:32.743Z,59.00
2019-06-08T01:28:01.967Z,58.70
2019-06-08T01:30:31.381Z,58.60
2019-06-08T01:33:00.825Z,58.50
2019-06-08T01:35:30.909Z,58.40
2019-06-08T01:38:00.478Z,58.30
2019-06-08T01:40:29.807Z,58.10
2019-06-08T01:42:59.104Z,58.10
2019-06-08T01:45:33.017Z,58.00
2019-06-08T01:48:16.010Z,57.80
2019-06-08T01:50:34.281Z,57.80
2019-06-08T01:53:03.634Z,57.40
2019-06-08T01:55:33.248Z,57.40
2019-06-08T01:58:02.885Z,57.10
2019-06-08T02:00:39.683Z,57.10
2019-06-08T02:03:06.101Z,57.10
2019-06-08T02:05:35.432Z,57.20
2019-06-08T02:08:04.933Z,56.70
2019-06-08T02:10:34.973Z,57.10
2019-06-08T02:13:07.655Z,57.20
2019-06-08T02:15:35.485Z,57.10
2019-06-08T02:18:04.756Z,57.10
2019-06-08T02:20:35.215Z,57.00
2019-06-08T02:23:04.617Z,57.30
2019-06-08T02:25:35.557Z,57.90
2019-06-08T02:28:05.029Z,57.50
2019-06-08T02:30:38.603Z,57.50
2019-06-08T02:33:05.687Z,57.50
2019-06-08T02:35:35.992Z,57.70
2019-06-08T02:38:06.709Z,57.70
2019-06-08T02:40:36.961Z,57.80
2019-06-08T02:43:06.599Z,57.80
2019-06-08T02:45:37.023Z,58.00
2019-06-08T02:48:07.523Z,58.10
2019-06-08T02:50:58.560Z,58.20
2019-06-08T02:53:29.413Z,57.90
2019-06-08T02:55:59.470Z,57.80
2019-06-08T02:58:31.165Z,57.80
2019-06-08T03:01:01.015Z,57.80
2019-06-08T03:03:33.765Z,57.80
2019-06-08T03:06:03.815Z,57.80
2019-06-08T03:08:39.306Z,57.60
2019-06-08T03:11:08.263Z,57.50
2019-06-08T03:13:39.820Z,57.20
2019-06-08T03:16:08.806Z,57.30
2019-06-08T03:18:40.071Z,57.30
2019-06-08T03:21:09.370Z,57.30
2019-06-08T03:23:40.993Z,57.10
2019-06-08T03:26:10.089Z,57.20
2019-06-08T03:28:41.400Z,56.80
2019-06-08T03:31:10.616Z,56.80
2019-06-08T03:33:50.936Z,56.90
2019-06-08T03:36:11.082Z,57.00
2019-06-08T03:38:42.331Z,57.00
2019-06-08T03:41:11.821Z,57.00
2019-06-08T03:43:42.408Z,57.00
2019-06-08T03:46:11.880Z,57.00
2019-06-08T03:48:42.247Z,56.90
2019-06-08T03:51:13.036Z,56.80
2019-06-08T03:53:44.422Z,56.90
2019-06-08T03:56:13.561Z,57.00
2019-06-08T03:58:45.245Z,57.10
2019-06-08T04:01:14.790Z,57.00
2019-06-08T04:03:46.010Z,56.80
2019-06-08T04:06:15.504Z,56.80
2019-06-08T04:08:47.263Z,56.90
2019-06-08T04:11:16.560Z,57.30
2019-06-08T04:13:47.155Z,57.40
2019-06-08T04:16:16.989Z,57.30
2019-06-08T04:18:46.767Z,57.30
2019-06-08T04:21:16.416Z,57.30
2019-06-08T04:23:47.085Z,57.30
2019-06-08T04:26:16.845Z,57.60
2019-06-08T04:28:47.283Z,57.70
2019-06-08T04:31:17.729Z,57.90
2019-06-08T04:33:47.906Z,58.30
2019-06-08T04:36:17.742Z,58.40
2019-06-08T04:38:48.438Z,58.80
2019-06-08T04:41:19.548Z,59.10
2019-06-08T04:43:49.810Z,59.20
2019-06-08T04:46:19.709Z,59.40
2019-06-08T04:48:49.953Z,59.30
2019-06-08T04:51:19.900Z,59.30
2019-06-08T04:53:49.698Z,59.30
2019-06-08T04:56:19.601Z,59.30
2019-06-08T04:58:51.266Z,59.30
2019-06-08T05:01:20.853Z,59.20
2019-06-08T05:03:50.725Z,59.70
2019-06-08T05:06:20.339Z,59.50
2019-06-08T05:08:50.165Z,60.20
2019-06-08T05:11:19.450Z,61.00
2019-06-08T05:13:49.761Z,62.30
2019-06-08T05:16:19.232Z,63.50
2019-06-08T05:18:49.695Z,63.00
2019-06-08T05:21:19.196Z,63.50
2019-06-08T05:23:58.006Z,63.00
2019-06-08T05:26:19.965Z,62.70
2019-06-08T05:28:50.063Z,62.80
2019-06-08T05:31:19.641Z,62.60
2019-06-08T05:33:49.800Z,62.70
2019-06-08T05:36:19.805Z,62.50
2019-06-08T05:38:49.901Z,62.30
2019-06-08T05:41:19.420Z,61.90
2019-06-08T05:43:49.923Z,61.50
2019-06-08T05:46:19.711Z,61.60
2019-06-08T05:48:50.295Z,61.90
2019-06-08T05:51:19.765Z,62.40
2019-06-08T05:53:50.099Z,61.40
2019-06-08T05:56:21.315Z,61.40
2019-06-08T05:58:50.617Z,61.20
2019-06-08T06:01:20.169Z,61.20
2019-06-08T06:03:51.779Z,61.20
2019-06-08T06:06:20.919Z,61.20
2019-06-08T06:08:51.246Z,60.90
2019-06-08T06:11:20.770Z,61.20
2019-06-08T06:13:51.567Z,61.20
2019-06-08T06:16:21.009Z,61.90
2019-06-08T06:18:52.248Z,61.00
2019-06-08T06:21:21.623Z,61.00
2019-06-08T06:23:51.517Z,61.00
2019-06-08T06:26:20.972Z,61.00
2019-06-08T06:28:51.665Z,61.30
2019-06-08T06:31:21.480Z,61.40
2019-06-08T06:33:52.169Z,62.00
2019-06-08T06:36:21.683Z,62.10
2019-06-08T06:38:52.193Z,62.00
2019-06-08T06:41:21.583Z,62.10
2019-06-08T06:43:51.935Z,62.90
2019-06-08T06:46:21.686Z,64.00
2019-06-08T06:48:52.377Z,64.60
2019-06-08T06:51:26.291Z,64.80
2019-06-08T06:53:53.319Z,65.10
2019-06-08T06:56:22.684Z,65.90
2019-06-08T06:58:51.960Z,66.00
2019-06-08T07:01:21.255Z,65.90
2019-06-08T07:03:50.472Z,65.60
2019-06-08T07:06:19.679Z,65.30
2019-06-08T07:08:50.245Z,65.80
2019-06-08T07:11:20.207Z,67.20
2019-06-08T07:13:50.804Z,66.70
2019-06-08T07:16:20.162Z,67.30
2019-06-08T07:18:50.206Z,67.90
2019-06-08T07:21:19.500Z,68.60
2019-06-08T07:23:49.874Z,69.10
2019-06-08T07:26:19.929Z,69.60
2019-06-08T07:28:49.898Z,69.20
2019-06-08T07:31:20.127Z,68.80
2019-06-08T07:33:51.522Z,68.90
2019-06-08T07:36:20.574Z,68.90
2019-06-08T07:38:50.267Z,68.90
2019-06-08T07:41:20.560Z,68.50
2019-06-08T07:43:50.777Z,68.80
2019-06-08T07:46:20.160Z,68.00
2019-06-08T07:48:50.420Z,68.90
2019-06-08T07:51:19.746Z,70.50
2019-06-08T07:53:49.867Z,70.10
2019-06-08T07:56:19.253Z,70.00
2019-06-08T07:58:49.751Z,70.30
2019-06-08T08:01:32.892Z,69.40
2019-06-08T08:03:50.411Z,69.50
2019-06-08T08:06:19.697Z,69.60
2019-06-08T08:08:48.920Z,69.40
2019-06-08T08:11:18.223Z,69.10
2019-06-08T08:13:49.574Z,68.50
2019-06-08T08:16:18.476Z,68.10
2019-06-08T08:18:48.958Z,67.60
2019-06-08T08:21:23.112Z,67.30
2019-06-08T08:23:50.633Z,67.00
2019-06-08T08:26:20.280Z,66.10
2019-06-08T08:28:51.781Z,65.50
2019-06-08T08:31:20.452Z,65.80
2019-06-08T08:33:50.117Z,65.20
2019-06-08T08:36:21.036Z,64.60
2019-06-08T08:38:51.787Z,64.30
2019-06-08T08:41:21.113Z,64.30
2019-06-08T08:43:51.441Z,64.30
2019-06-08T08:46:21.331Z,64.10
2019-06-08T08:48:51.464Z,63.70
2019-06-08T08:51:21.725Z,63.50
2019-06-08T08:53:55.809Z,62.90
2019-06-08T08:56:23.006Z,61.40
2019-06-08T08:58:52.485Z,61.10
2019-06-08T09:01:21.875Z,60.70
2019-06-08T09:03:54.465Z,60.70
2019-06-08T09:06:23.069Z,60.50
2019-06-08T09:08:53.579Z,60.30
2019-06-08T09:11:23.163Z,61.90
2019-06-08T09:13:53.583Z,63.20
2019-06-08T09:16:23.106Z,63.30
2019-06-08T09:18:53.745Z,62.70
2019-06-08T09:21:23.640Z,62.20
2019-06-08T09:23:53.834Z,62.10
2019-06-08T09:26:23.277Z,62.00
2019-06-08T09:28:53.270Z,62.20
2019-06-08T09:31:23.750Z,62.00
2019-06-08T09:33:56.952Z,61.80
2019-06-08T09:36:23.996Z,62.10
2019-06-08T09:38:55.363Z,62.00
2019-06-08T09:41:24.227Z,61.70
2019-06-08T09:43:55.286Z,61.30
2019-06-08T09:46:24.702Z,61.40
2019-06-08T09:48:55.541Z,61.50
2019-06-08T09:51:25.117Z,61.60
2019-06-08T09:53:55.793Z,61.80
2019-06-08T09:56:28.016Z,61.90
2019-06-08T09:59:00.018Z,61.90
2019-06-08T10:01:28.645Z,61.50
2019-06-08T10:04:00.798Z,61.40
2019-06-08T10:06:28.994Z,61.20
2019-06-08T10:08:58.509Z,61.00
2019-06-08T10:11:28.201Z,60.90
2019-06-08T10:14:02.639Z,60.80
2019-06-08T10:16:30.849Z,60.40
2019-06-08T10:19:03.580Z,59.90
2019-06-08T10:21:30.570Z,59.20
2019-06-08T10:24:02.703Z,59.90
2019-06-08T10:26:31.046Z,60.80
2019-06-08T10:29:03.296Z,62.00
2019-06-08T10:31:39.097Z,62.10
2019-06-08T10:34:03.846Z,62.10
2019-06-08T10:36:33.434Z,62.20
2019-06-08T10:39:07.288Z,62.70
2019-06-08T10:41:35.352Z,62.10
2019-06-08T10:44:05.648Z,61.70
2019-06-08T10:46:40.350Z,62.10
2019-06-08T10:49:09.595Z,61.30
2019-06-08T10:51:40.219Z,61.00
2019-06-08T10:54:09.451Z,60.70
2019-06-08T10:56:39.570Z,60.80
2019-06-08T10:59:10.452Z,60.40
2019-06-08T11:01:39.803Z,60.60
2019-06-08T11:04:09.394Z,62.70
2019-06-08T11:06:40.263Z,63.80
2019-06-08T11:09:13.234Z,64.40
2019-06-08T11:11:40.734Z,64.90
2019-06-08T11:14:12.848Z,65.20
2019-06-08T11:16:40.950Z,66.60
2019-06-08T11:19:13.132Z,67.90
2019-06-08T11:21:41.142Z,67.40
2019-06-08T11:24:23.119Z,67.40
2019-06-08T11:26:41.399Z,66.70
2019-06-08T11:29:13.634Z,66.50
2019-06-08T11:31:41.795Z,66.30
2019-06-08T11:34:11.014Z,66.90
2019-06-08T11:36:40.311Z,65.70
2019-06-08T11:39:12.593Z,64.80
2019-06-08T11:41:43.502Z,63.90
2019-06-08T11:44:14.910Z,64.40
2019-06-08T11:46:44.088Z,64.90
2019-06-08T11:49:15.081Z,64.10
2019-06-08T11:51:44.306Z,64.40
2019-06-08T11:54:31.753Z,64.20
2019-06-08T11:56:45.083Z,64.40
2019-06-08T11:59:15.065Z,65.10
2019-06-08T12:01:44.310Z,64.70
2019-06-08T12:04:13.591Z,62.40
2019-06-08T12:06:42.817Z,61.80
2019-06-08T12:09:12.707Z,61.00
2019-06-08T12:11:43.100Z,60.80
2019-06-08T12:14:13.102Z,62.90
2019-06-08T12:16:43.288Z,63.50
2019-06-08T12:19:16.646Z,63.50
2019-06-08T12:21:43.553Z,63.10
2019-06-08T12:24:14.449Z,64.50
2019-06-08T12:26:43.771Z,64.80
2019-06-08T12:29:14.535Z,65.90
2019-06-08T12:31:44.163Z,64.20
2019-06-08T12:34:13.524Z,64.20
2019-06-08T12:36:42.813Z,64.30
2019-06-08T12:39:12.236Z,63.70
2019-06-08T12:41:41.442Z,62.50
2019-06-08T12:44:14.650Z,62.20
2019-06-08T12:46:42.226Z,61.60
2019-06-08T12:49:12.947Z,60.90
2019-06-08T12:51:42.442Z,61.20
2019-06-08T12:54:12.744Z,61.30
2019-06-08T12:56:42.586Z,60.70
2019-06-08T12:59:14.656Z,59.70
2019-06-08T13:01:42.880Z,59.30
2019-06-08T13:04:12.233Z,59.10
2019-06-08T13:06:41.446Z,58.30
2019-06-08T13:09:11.983Z,58.00
2019-06-08T13:11:41.737Z,57.90
2019-06-08T13:14:11.817Z,55.90
2019-06-08T13:16:42.249Z,55.60
2019-06-08T13:19:13.084Z,56.50
2019-06-08T13:21:42.473Z,55.70
2019-06-08T13:24:15.226Z,55.00
2019-06-08T13:26:44.465Z,55.00
2019-06-08T13:29:13.801Z,53.60
2019-06-08T13:31:43.091Z,54.00
2019-06-08T13:34:14.236Z,53.80
2019-06-08T13:36:43.303Z,53.40
2019-06-08T13:39:13.230Z,51.70
2019-06-08T13:41:42.519Z,51.10
2019-06-08T13:44:11.884Z,50.90
2019-06-08T13:46:41.120Z,51.20
2019-06-08T13:49:10.538Z,51.00
2019-06-08T13:51:39.737Z,50.20
2019-06-08T13:54:09.082Z,50.40
2019-06-08T13:56:38.715Z,50.80
2019-06-08T13:59:08.130Z,50.00
2019-06-08T14:01:37.939Z,50.40
2019-06-08T14:04:09.005Z,48.90
2019-06-08T14:06:38.369Z,47.80
2019-06-08T14:09:08.317Z,47.60
2019-06-08T14:11:37.753Z,48.30
2019-06-08T14:14:08.406Z,50.20
2019-06-08T14:16:38.943Z,51.80
2019-06-08T14:19:08.622Z,52.00
2019-06-08T14:21:41.822Z,53.50
2019-06-08T14:24:09.062Z,54.20
2019-06-08T14:26:38.352Z,55.50
2019-06-08T14:29:08.311Z,55.40
2019-06-08T14:31:38.098Z,55.90
2019-06-08T14:34:09.995Z,55.20
2019-06-08T14:36:40.794Z,55.70
2019-06-08T14:39:10.777Z,56.90
2019-06-08T14:41:40.421Z,56.90
2019-06-08T14:44:09.817Z,56.70
2019-06-08T14:46:41.188Z,54.50
2019-06-08T14:49:10.041Z,53.60
2019-06-08T14:51:49.468Z,52.40
2019-06-08T14:54:23.534Z,49.60
2019-06-08T14:56:54.011Z,48.90
2019-06-08T14:59:23.878Z,48.00
2019-06-08T15:01:53.503Z,47.90
2019-06-08T15:04:26.243Z,47.30
2019-06-08T15:06:53.698Z,47.90
2019-06-08T15:09:23.434Z,48.20
2019-06-08T15:11:52.809Z,47.30
2019-06-08T15:14:22.160Z,47.10
2019-06-08T15:16:54.651Z,46.70
2019-06-08T15:19:24.429Z,47.10
2019-06-08T15:21:53.801Z,47.30
2019-06-08T15:24:23.141Z,47.10
2019-06-08T15:26:52.411Z,46.70
2019-06-08T15:29:22.790Z,46.60
2019-06-08T15:31:52.371Z,46.30
2019-06-08T15:34:21.660Z,46.70
2019-06-08T15:36:50.984Z,47.20
2019-06-08T15:39:21.556Z,47.10
2019-06-08T15:41:50.907Z,47.00
2019-06-08T15:44:22.628Z,46.50
2019-06-08T15:46:51.139Z,45.70
2019-06-08T15:49:20.484Z,45.20
2019-06-08T15:51:49.896Z,45.30
2019-06-08T15:54:19.139Z,45.30
2019-06-08T15:56:51.982Z,43.80
2019-06-08T15:59:19.328Z,43.90
2019-06-08T16:01:48.681Z,43.70
2019-06-08T16:04:18.071Z,43.40
2019-06-08T16:06:47.855Z,43.90
2019-06-08T16:09:17.336Z,44.50
2019-06-08T16:11:46.689Z,44.40
2019-06-08T16:14:15.995Z,44.40
2019-06-08T16:16:45.470Z,44.00
2019-06-08T16:19:14.751Z,43.90
2019-06-08T16:21:44.044Z,44.70
2019-06-08T16:24:13.368Z,47.30
2019-06-08T16:26:52.794Z,48.10
2019-06-08T16:29:13.603Z,48.20
2019-06-08T16:31:42.895Z,48.00
2019-06-08T16:34:12.197Z,48.20
2019-06-08T16:36:41.524Z,48.10
2019-06-08T16:39:10.795Z,48.00
2019-06-08T16:41:40.408Z,48.30
2019-06-08T16:44:09.828Z,48.40
2019-06-08T16:46:39.120Z,48.20
2019-06-08T16:49:08.429Z,47.90
2019-06-08T16:51:37.676Z,48.30
2019-06-08T16:54:07.156Z,48.70
2019-06-08T16:56:36.701Z,48.80
2019-06-08T16:59:06.128Z,48.90
2019-06-08T17:01:36.751Z,49.20
2019-06-08T17:04:06.163Z,49.10
2019-06-08T17:06:35.463Z,48.60
2019-06-08T17:09:05.723Z,48.50
2019-06-08T17:11:35.229Z,48.30
2019-06-08T17:14:04.856Z,47.80
2019-06-08T17:16:34.472Z,47.90
2019-06-08T17:19:03.745Z,46.80
2019-06-08T17:21:34.164Z,42.30
2019-06-08T17:24:03.519Z,39.90
2019-06-08T17:26:32.739Z,39.80
2019-06-08T17:29:01.998Z,39.60
2019-06-08T17:31:31.447Z,39.30
2019-06-08T17:34:00.759Z,39.40
2019-06-08T17:36:30.084Z,39.70
2019-06-08T17:38:59.474Z,39.60
2019-06-08T17:41:28.776Z,40.00
2019-06-08T17:43:58.344Z,40.00
2019-06-08T17:46:27.584Z,40.10
2019-06-08T17:48:56.794Z,40.00
2019-06-08T17:51:26.104Z,39.90
2019-06-08T17:53:55.335Z,39.90
2019-06-08T17:56:24.585Z,40.20
2019-06-08T17:58:53.859Z,40.40
2019-06-08T18:01:23.093Z,40.20
2019-06-08T18:03:52.381Z,40.20
2019-06-08T18:06:21.589Z,40.40
2019-06-08T18:08:50.808Z,40.50
2019-06-08T18:11:20.101Z,40.50
2019-06-08T18:13:49.303Z,40.60
2019-06-08T18:16:20.221Z,40.90
2019-06-08T18:18:49.473Z,41.00
2019-06-08T18:21:18.724Z,40.70
2019-06-08T18:23:48.259Z,40.90
2019-06-08T18:26:17.585Z,41.30
2019-06-08T18:28:48.513Z,41.20
2019-06-08T18:31:18.179Z,41.50
2019-06-08T18:33:50.178Z,41.90
2019-06-08T18:36:18.599Z,42.20
2019-06-08T18:38:48.527Z,42.50
2019-06-08T18:41:18.052Z,42.50
2019-06-08T18:43:49.539Z,42.30
2019-06-08T18:46:18.265Z,41.80
2019-06-08T18:48:49.231Z,41.40
2019-06-08T18:51:18.605Z,41.40
2019-06-08T18:54:06.700Z,41.60
2019-06-08T18:56:18.925Z,41.80
2019-06-08T18:58:51.462Z,42.10
2019-06-08T19:01:22.885Z,42.50
2019-06-08T19:03:52.533Z,42.90
2019-06-08T19:06:21.536Z,43.20
2019-06-08T19:08:51.668Z,43.70
2019-06-08T19:11:21.086Z,43.90
2019-06-08T19:13:52.469Z,44.20
2019-06-08T19:16:21.871Z,44.50
2019-06-08T19:18:52.786Z,44.80
2019-06-08T19:21:22.198Z,45.10
2019-06-08T19:23:51.492Z,45.40
2019-06-08T19:26:20.710Z,45.70
2019-06-08T19:28:54.081Z,46.10
2019-06-08T19:31:21.442Z,46.40
2019-06-08T19:33:53.363Z,46.70
2019-06-08T19:36:21.991Z,46.90
2019-06-08T19:38:54.514Z,47.20
2019-06-08T19:41:22.604Z,47.60
2019-06-08T19:43:54.566Z,47.70
2019-06-08T19:46:22.875Z,48.00
2019-06-08T19:48:54.971Z,48.30
2019-06-08T19:51:23.250Z,48.50
2019-06-08T19:53:54.866Z,48.90
2019-06-08T19:56:23.483Z,49.10
2019-06-08T19:59:01.806Z,49.30
2019-06-08T20:01:23.718Z,49.40
2019-06-08T20:03:53.339Z,49.60
2019-06-08T20:06:22.678Z,49.70
2019-06-08T20:08:51.866Z,49.80
2019-06-08T20:11:21.142Z,49.90
2019-06-08T20:13:51.748Z,50.10
2019-06-08T20:16:21.347Z,50.00
2019-06-08T20:18:51.677Z,50.20
2019-06-08T20:21:21.751Z,50.30
2019-06-08T20:23:51.023Z,50.50
2019-06-08T20:26:20.312Z,50.60
2019-06-08T20:28:51.574Z,50.80
2019-06-08T20:31:20.683Z,50.90
2019-06-08T20:33:51.755Z,51.10
2019-06-08T20:36:21.106Z,51.30
2019-06-08T20:38:50.902Z,51.40
2019-06-08T20:41:20.328Z,51.50
2019-06-08T20:43:51.939Z,51.70
2019-06-08T20:46:20.996Z,51.90
2019-06-08T20:48:51.629Z,52.10
2019-06-08T20:51:21.277Z,52.10
2019-06-08T20:53:50.931Z,52.20
2019-06-08T20:56:21.414Z,52.30
2019-06-08T20:58:51.403Z,52.10
2019-06-08T21:01:24.534Z,52.30
2019-06-08T21:03:56.982Z,52.20
2019-06-08T21:06:27.756Z,52.30
2019-06-08T21:08:57.654Z,52.40
2019-06-08T21:11:27.669Z,52.30
2019-06-08T21:13:56.983Z,52.60
2019-06-08T21:16:27.720Z,52.60
2019-06-08T21:18:57.979Z,52.70
2019-06-08T21:21:28.283Z,52.80
2019-06-08T21:24:00.961Z,53.00
2019-06-08T21:26:29.016Z,53.30
2019-06-08T21:29:00.398Z,53.40
2019-06-08T21:31:29.201Z,53.70
2019-06-08T21:34:00.849Z,53.70
2019-06-08T21:36:29.468Z,53.70
2019-06-08T21:39:02.203Z,53.80
2019-06-08T21:41:29.616Z,53.90
2019-06-08T21:44:01.907Z,54.10
2019-06-08T21:46:29.696Z,54.10
2019-06-08T21:49:00.490Z,54.10
2019-06-08T21:51:29.832Z,54.20
2019-06-08T21:54:00.461Z,54.30
2019-06-08T21:56:29.833Z,54.30
2019-06-08T21:59:00.904Z,54.20
2019-06-08T22:01:31.878Z,54.30
2019-06-08T22:04:02.342Z,54.40
2019-06-08T22:06:31.739Z,54.20
2019-06-08T22:09:01.638Z,54.30
2019-06-08T22:11:32.095Z,54.40
2019-06-08T22:14:01.328Z,54.50
2019-06-08T22:16:30.634Z,54.70
2019-06-08T22:19:00.903Z,54.90
2019-06-08T22:21:30.255Z,55.00
2019-06-08T22:24:00.617Z,55.00
2019-06-08T22:26:30.210Z,55.10
2019-06-08T22:29:01.094Z,55.10
2019-06-08T22:31:30.404Z,55.30
2019-06-08T22:34:02.085Z,55.30
2019-06-08T22:36:30.581Z,55.30
2019-06-08T22:39:01.035Z,55.20
2019-06-08T22:41:30.981Z,55.30
2019-06-08T22:44:00.948Z,55.50
2019-06-08T22:46:30.291Z,55.60
2019-06-08T22:49:02.260Z,55.90
2019-06-08T22:51:30.600Z,56.00
2019-06-08T22:54:02.025Z,56.00
2019-06-08T22:56:30.928Z,56.20
2019-06-08T22:59:04.769Z,56.20
2019-06-08T23:01:32.795Z,56.20
2019-06-08T23:04:03.865Z,56.50
2019-06-08T23:06:33.001Z,56.60
2019-06-08T23:09:03.990Z,56.60
2019-06-08T23:11:33.129Z,56.80
2019-06-08T23:14:04.080Z,57.00
2019-06-08T23:16:33.266Z,57.10
2019-06-08T23:19:03.265Z,57.10
2019-06-08T23:21:38.095Z,57.30
2019-06-08T23:24:08.464Z,57.30
2019-06-08T23:26:37.975Z,57.40
2019-06-08T23:29:09.392Z,57.60
2019-06-08T23:31:38.739Z,57.70
2019-06-08T23:34:11.355Z,57.70
2019-06-08T23:36:51.784Z,57.90
2019-06-08T23:39:09.971Z,58.00
2019-06-08T23:41:39.194Z,58.10
2019-06-08T23:44:08.371Z,58.20
2019-06-08T23:46:38.026Z,58.30
2019-06-08T23:49:09.001Z,58.40
2019-06-08T23:51:38.361Z,58.60
2019-06-08T23:54:12.025Z,58.50
2019-06-08T23:56:38.568Z,58.50
2019-06-08T23:59:07.776Z,58.60
